createdAt,value
2022-12-03T00:02:21.828Z,13.20
2022-12-03T00:04:48.760Z,13.20
2022-12-03T00:07:15.538Z,13.20
2022-12-03T00:09:42.893Z,13.20
2022-12-03T00:12:09.778Z,13.10
2022-12-03T00:14:41.228Z,13.10
2022-12-03T00:17:11.163Z,13.10
2022-12-03T00:19:37.961Z,13.10
2022-12-03T00:22:04.731Z,13.10
2022-12-03T00:24:31.593Z,13.10
2022-12-03T00:26:58.397Z,13.10
2022-12-03T00:29:25.197Z,13.10
2022-12-03T00:31:52.024Z,13.10
2022-12-03T00:34:18.845Z,13.10
2022-12-03T00:36:45.657Z,13.10
2022-12-03T00:39:12.573Z,13.10
2022-12-03T00:41:39.368Z,13.00
2022-12-03T00:44:06.302Z,13.00
2022-12-03T00:46:33.278Z,13.10
2022-12-03T00:49:00.142Z,13.10
2022-12-03T00:51:26.941Z,13.10
2022-12-03T00:53:53.799Z,13.10
2022-12-03T00:56:20.609Z,13.10
2022-12-03T00:58:47.456Z,13.10
2022-12-03T01:01:14.425Z,13.00
2022-12-03T01:03:41.297Z,13.00
2022-12-03T01:06:08.239Z,13.00
2022-12-03T01:08:35.160Z,13.00
2022-12-03T01:11:02.034Z,13.00
2022-12-03T01:13:28.932Z,13.00
2022-12-03T01:15:55.826Z,13.00
2022-12-03T01:18:22.657Z,13.00
2022-12-03T01:20:49.457Z,13.00
2022-12-03T01:23:16.262Z,13.00
2022-12-03T01:25:43.083Z,13.00
2022-12-03T01:28:11.556Z,13.00
2022-12-03T01:30:58.396Z,13.00
2022-12-03T01:33:25.284Z,13.00
2022-12-03T01:35:52.082Z,13.00
2022-12-03T01:38:18.950Z,12.90
2022-12-03T01:40:45.906Z,12.90
2022-12-03T01:43:12.725Z,12.90
2022-12-03T01:45:39.592Z,12.90
2022-12-03T01:48:06.662Z,12.90
2022-12-03T01:50:33.970Z,12.90
2022-12-03T01:53:03.156Z,12.90
2022-12-03T01:55:30.264Z,12.90
2022-12-03T01:58:01.961Z,12.90
2022-12-03T02:00:29.871Z,12.80
2022-12-03T02:03:00.672Z,12.90
2022-12-03T02:05:30.400Z,12.90
2022-12-03T02:07:58.058Z,12.90
2022-12-03T02:10:32.555Z,12.80
2022-12-03T02:13:08.954Z,12.80
2022-12-03T02:15:38.488Z,12.80
2022-12-03T02:18:05.555Z,12.90
2022-12-03T02:20:35.960Z,12.90
2022-12-03T02:23:12.056Z,12.90
2022-12-03T02:25:39.113Z,12.80
2022-12-03T02:28:08.706Z,12.90
2022-12-03T02:30:36.500Z,12.80
2022-12-03T02:33:03.959Z,12.90
2022-12-03T02:35:34.493Z,12.90
2022-12-03T02:38:23.208Z,12.90
2022-12-03T02:40:54.469Z,12.90
2022-12-03T02:43:22.535Z,12.90
2022-12-03T02:45:55.584Z,12.90
2022-12-03T02:48:27.516Z,12.90
2022-12-03T02:50:57.587Z,12.90
2022-12-03T02:53:28.173Z,12.90
2022-12-03T02:55:56.763Z,12.90
2022-12-03T02:58:25.545Z,12.90
2022-12-03T03:00:54.059Z,12.90
2022-12-03T03:03:22.314Z,12.90
2022-12-03T03:05:49.884Z,12.90
2022-12-03T03:08:17.800Z,12.90
2022-12-03T03:10:46.664Z,12.90
2022-12-03T03:13:16.549Z,12.90
2022-12-03T03:15:43.825Z,12.90
2022-12-03T03:18:12.506Z,12.90
2022-12-03T03:20:39.908Z,12.90
2022-12-03T03:23:20.571Z,12.90
2022-12-03T03:25:51.833Z,12.90
2022-12-03T03:28:19.103Z,12.90
2022-12-03T03:30:46.689Z,12.90
2022-12-03T03:33:15.704Z,12.90
2022-12-03T03:35:43.600Z,12.90
2022-12-03T03:38:11.374Z,12.90
2022-12-03T03:40:39.137Z,12.90
2022-12-03T03:43:07.019Z,12.90
2022-12-03T03:45:34.300Z,13.00
2022-12-03T03:48:01.434Z,12.90
2022-12-03T03:50:30.156Z,12.90
2022-12-03T03:52:57.727Z,12.90
2022-12-03T03:55:24.840Z,12.90
2022-12-03T03:57:51.698Z,12.90
2022-12-03T04:00:19.094Z,13.00
2022-12-03T04:02:46.298Z,12.90
2022-12-03T04:05:19.563Z,13.00
2022-12-03T04:07:47.021Z,12.90
2022-12-03T04:10:33.705Z,12.90
2022-12-03T04:13:00.969Z,12.90
2022-12-03T04:15:28.278Z,12.90
2022-12-03T04:18:14.168Z,12.90
2022-12-03T04:20:41.006Z,12.90
2022-12-03T04:23:07.789Z,12.80
2022-12-03T04:25:53.244Z,12.80
2022-12-03T04:28:38.770Z,12.80
2022-12-03T04:31:25.917Z,12.80
2022-12-03T04:34:25.149Z,12.80
2022-12-03T04:36:52.070Z,12.80
2022-12-03T04:39:19.098Z,12.90
2022-12-03T04:41:45.932Z,12.90
2022-12-03T04:44:31.624Z,12.90
2022-12-03T04:46:58.623Z,12.90
2022-12-03T04:49:25.778Z,12.90
2022-12-03T04:51:52.614Z,12.90
2022-12-03T04:54:19.573Z,12.90
2022-12-03T04:56:46.486Z,12.90
2022-12-03T04:59:16.319Z,12.90
2022-12-03T05:01:44.171Z,12.90
2022-12-03T05:04:12.284Z,12.90
2022-12-03T05:06:39.345Z,13.00
2022-12-03T05:09:06.305Z,13.00
2022-12-03T05:11:33.131Z,13.00
2022-12-03T05:13:59.998Z,13.00
2022-12-03T05:16:27.006Z,12.90
2022-12-03T05:18:53.881Z,12.90
2022-12-03T05:21:20.724Z,12.90
2022-12-03T05:23:47.684Z,12.90
2022-12-03T05:26:14.520Z,12.90
2022-12-03T05:28:41.571Z,12.80
2022-12-03T05:31:08.689Z,12.90
2022-12-03T05:33:39.466Z,12.90
2022-12-03T05:36:09.624Z,12.80
2022-12-03T05:38:36.462Z,12.90
2022-12-03T05:41:23.664Z,12.90
2022-12-03T05:43:50.482Z,12.80
2022-12-03T05:46:17.400Z,12.90
2022-12-03T05:48:44.783Z,12.90
2022-12-03T05:51:11.740Z,12.90
2022-12-03T05:53:38.584Z,12.90
2022-12-03T05:56:05.779Z,12.80
2022-12-03T05:58:32.744Z,12.80
2022-12-03T06:00:59.553Z,12.90
2022-12-03T06:03:27.087Z,12.80
2022-12-03T06:05:54.009Z,12.80
2022-12-03T06:08:20.803Z,12.80
2022-12-03T06:10:47.724Z,12.80
2022-12-03T06:13:14.495Z,12.80
2022-12-03T06:15:43.960Z,12.80
2022-12-03T06:18:11.753Z,12.80
2022-12-03T06:20:38.785Z,12.80
2022-12-03T06:23:05.574Z,12.80
2022-12-03T06:25:32.369Z,12.90
2022-12-03T06:27:59.168Z,12.80
2022-12-03T06:30:26.060Z,12.90
2022-12-03T06:32:52.948Z,12.90
2022-12-03T06:35:19.834Z,12.90
2022-12-03T06:37:46.636Z,12.90
2022-12-03T06:40:13.821Z,12.90
2022-12-03T06:42:40.613Z,13.00
2022-12-03T06:45:07.619Z,13.00
2022-12-03T06:47:34.586Z,13.00
2022-12-03T06:50:01.408Z,13.00
2022-12-03T06:52:28.237Z,13.00
2022-12-03T06:54:55.278Z,13.00
2022-12-03T06:57:22.331Z,13.00
2022-12-03T06:59:49.137Z,13.00
2022-12-03T07:02:15.946Z,13.10
2022-12-03T07:04:46.295Z,13.10
2022-12-03T07:07:13.775Z,13.10
2022-12-03T07:09:41.220Z,13.10
2022-12-03T07:12:08.169Z,13.10
2022-12-03T07:14:35.065Z,13.10
2022-12-03T07:17:02.072Z,13.10
2022-12-03T07:19:32.549Z,13.20
2022-12-03T07:22:00.196Z,13.20
2022-12-03T07:24:27.121Z,13.20
2022-12-03T07:26:53.916Z,13.20
2022-12-03T07:29:20.795Z,13.20
2022-12-03T07:31:47.689Z,13.20
2022-12-03T07:34:14.564Z,13.20
2022-12-03T07:36:41.372Z,13.20
2022-12-03T07:39:08.213Z,13.20
2022-12-03T07:41:35.005Z,13.20
2022-12-03T07:44:01.852Z,13.20
2022-12-03T07:46:28.733Z,13.30
2022-12-03T07:48:55.627Z,13.30
2022-12-03T07:51:25.055Z,13.30
2022-12-03T07:53:54.560Z,13.30
2022-12-03T07:56:21.445Z,13.30
2022-12-03T07:58:48.280Z,13.30
2022-12-03T08:01:15.136Z,13.30
2022-12-03T08:03:43.080Z,13.30
2022-12-03T08:06:10.021Z,13.40
2022-12-03T08:08:36.829Z,13.40
2022-12-03T08:11:03.833Z,13.40
2022-12-03T08:13:30.870Z,13.40
2022-12-03T08:16:01.087Z,13.40
2022-12-03T08:18:28.645Z,13.50
2022-12-03T08:20:55.462Z,13.40
2022-12-03T08:23:26.457Z,13.50
2022-12-03T08:25:53.712Z,13.50
2022-12-03T08:28:28.649Z,13.50
2022-12-03T08:31:08.477Z,13.50
2022-12-03T08:33:36.918Z,13.60
2022-12-03T08:36:11.392Z,13.60
2022-12-03T08:38:38.320Z,13.60
2022-12-03T08:41:15.784Z,13.60
2022-12-03T08:43:43.980Z,13.70
2022-12-03T08:46:19.617Z,13.70
2022-12-03T08:48:49.135Z,13.70
2022-12-03T08:51:25.576Z,13.70
2022-12-03T08:54:12.819Z,13.70
2022-12-03T08:56:39.669Z,13.70
2022-12-03T08:59:35.718Z,13.80
2022-12-03T09:02:02.714Z,13.80
2022-12-03T09:04:31.270Z,13.80
2022-12-03T09:06:59.107Z,13.90
2022-12-03T09:09:26.213Z,13.80
2022-12-03T09:11:53.965Z,13.90
2022-12-03T09:14:22.871Z,13.90
2022-12-03T09:16:55.468Z,13.90
2022-12-03T09:19:24.668Z,13.80
2022-12-03T09:21:52.900Z,13.80
2022-12-03T09:24:20.149Z,13.90
2022-12-03T09:26:48.018Z,13.90
2022-12-03T09:29:15.069Z,13.90
2022-12-03T09:31:42.382Z,13.90
2022-12-03T09:34:09.440Z,14.00
2022-12-03T09:36:36.270Z,14.00
2022-12-03T09:39:03.164Z,14.00
2022-12-03T09:41:30.105Z,14.10
2022-12-03T09:44:05.527Z,14.10
2022-12-03T09:46:34.806Z,14.20
2022-12-03T09:49:02.962Z,14.20
2022-12-03T09:51:35.467Z,14.20
2022-12-03T09:54:04.904Z,14.20
2022-12-03T09:56:32.377Z,14.30
2022-12-03T09:58:59.601Z,14.30
2022-12-03T10:01:30.068Z,14.30
2022-12-03T10:03:58.485Z,14.30
2022-12-03T10:06:25.440Z,14.40
2022-12-03T10:08:54.991Z,14.40
2022-12-03T10:11:24.563Z,14.40
2022-12-03T10:13:52.609Z,14.40
2022-12-03T10:16:21.028Z,14.40
2022-12-03T10:18:52.116Z,14.50
2022-12-03T10:21:39.472Z,14.50
2022-12-03T10:24:26.069Z,14.50
2022-12-03T10:26:56.380Z,14.50
2022-12-03T10:29:33.583Z,14.50
2022-12-03T10:32:08.037Z,14.50
2022-12-03T10:34:40.079Z,14.50
2022-12-03T10:37:21.534Z,14.60
2022-12-03T10:39:56.189Z,14.60
2022-12-03T10:42:25.431Z,14.60
2022-12-03T10:45:27.462Z,14.60
2022-12-03T10:48:12.524Z,14.60
2022-12-03T10:50:52.083Z,14.70
2022-12-03T10:53:20.596Z,14.70
2022-12-03T10:55:51.276Z,14.70
2022-12-03T10:58:24.808Z,14.70
2022-12-03T11:00:54.415Z,14.70
2022-12-03T11:03:29.210Z,14.70
2022-12-03T11:05:57.480Z,14.70
2022-12-03T11:08:27.306Z,14.70
2022-12-03T11:11:06.426Z,14.60
2022-12-03T11:13:33.257Z,14.60
2022-12-03T11:16:04.754Z,14.60
2022-12-03T11:18:37.652Z,14.60
2022-12-03T11:21:06.582Z,14.60
2022-12-03T11:23:45.676Z,14.60
2022-12-03T11:26:37.746Z,14.60
2022-12-03T11:29:13.304Z,14.60
2022-12-03T11:31:47.276Z,14.60
2022-12-03T11:34:20.543Z,14.60
2022-12-03T11:37:12.238Z,14.60
2022-12-03T11:39:45.018Z,14.60
2022-12-03T11:42:26.588Z,14.60
2022-12-03T11:45:05.555Z,14.60
2022-12-03T11:47:34.153Z,14.70
2022-12-03T11:50:01.235Z,14.70
2022-12-03T11:52:32.044Z,14.70
2022-12-03T11:55:02.968Z,14.80
2022-12-03T11:57:36.491Z,14.80
2022-12-03T12:00:09.447Z,14.80
2022-12-03T12:02:36.524Z,14.80
2022-12-03T12:05:16.737Z,14.80
2022-12-03T12:07:45.969Z,14.80
2022-12-03T12:10:12.882Z,14.80
2022-12-03T12:12:54.301Z,14.90
2022-12-03T12:15:40.356Z,14.80
2022-12-03T12:18:41.416Z,14.80
2022-12-03T12:21:42.483Z,14.80
2022-12-03T12:24:40.697Z,14.80
2022-12-03T12:27:20.498Z,14.80
2022-12-03T12:29:56.464Z,14.80
2022-12-03T12:32:32.285Z,14.70
2022-12-03T12:35:19.713Z,14.70
2022-12-03T12:37:59.158Z,14.80
2022-12-03T12:40:29.680Z,14.80
2022-12-03T12:43:26.830Z,14.80
2022-12-03T12:45:56.443Z,14.70
2022-12-03T12:48:36.484Z,14.70
2022-12-03T12:51:21.533Z,14.70
2022-12-03T12:53:49.904Z,14.70
2022-12-03T12:56:30.345Z,14.70
2022-12-03T12:59:09.415Z,14.70
2022-12-03T13:01:36.659Z,14.70
2022-12-03T13:04:15.766Z,14.70
2022-12-03T13:06:43.154Z,14.70
2022-12-03T13:09:21.125Z,14.60
2022-12-03T13:11:59.121Z,14.60
2022-12-03T13:14:36.934Z,14.60
2022-12-03T13:17:19.711Z,14.60
2022-12-03T13:19:50.702Z,14.60
2022-12-03T13:22:22.804Z,14.60
2022-12-03T13:24:56.200Z,14.60
2022-12-03T13:27:29.566Z,14.70
2022-12-03T13:30:01.236Z,14.70
2022-12-03T13:32:31.307Z,14.70
2022-12-03T13:35:24.176Z,14.70
2022-12-03T13:37:50.979Z,14.70
2022-12-03T13:40:26.540Z,14.70
2022-12-03T13:42:54.385Z,14.70
2022-12-03T13:45:22.409Z,14.70
2022-12-03T13:47:57.731Z,14.70
2022-12-03T13:50:27.591Z,14.70
2022-12-03T13:52:55.099Z,14.70
2022-12-03T13:55:30.172Z,14.70
2022-12-03T13:57:57.920Z,14.70
2022-12-03T14:00:24.861Z,14.70
2022-12-03T14:02:51.904Z,14.70
2022-12-03T14:05:19.097Z,14.70
2022-12-03T14:07:45.947Z,14.70
2022-12-03T14:10:13.351Z,14.70
2022-12-03T14:12:40.223Z,14.60
2022-12-03T14:15:08.589Z,14.60
2022-12-03T14:17:35.507Z,14.60
2022-12-03T14:20:04.468Z,14.60
2022-12-03T14:22:31.415Z,14.60
2022-12-03T14:24:58.500Z,14.60
2022-12-03T14:27:25.451Z,14.60
2022-12-03T14:29:52.746Z,14.60
2022-12-03T14:32:19.847Z,14.60
2022-12-03T14:34:46.653Z,14.60
2022-12-03T14:37:13.474Z,14.60
2022-12-03T14:39:40.440Z,14.60
2022-12-03T14:42:13.430Z,14.60
2022-12-03T14:44:45.431Z,14.60
2022-12-03T14:47:13.705Z,14.60
2022-12-03T14:49:40.743Z,14.50
2022-12-03T14:52:11.943Z,14.50
2022-12-03T14:54:41.751Z,14.50
2022-12-03T14:57:09.215Z,14.60
2022-12-03T14:59:35.993Z,14.50
2022-12-03T15:02:02.991Z,14.50
2022-12-03T15:04:29.881Z,14.50
2022-12-03T15:06:56.770Z,14.50
2022-12-03T15:09:23.654Z,14.50
2022-12-03T15:11:50.521Z,14.60
2022-12-03T15:14:17.347Z,14.50
2022-12-03T15:16:44.346Z,14.50
2022-12-03T15:19:11.272Z,14.60
2022-12-03T15:21:38.121Z,14.50
2022-12-03T15:24:05.096Z,14.50
2022-12-03T15:26:31.888Z,14.50
2022-12-03T15:28:58.741Z,14.50
2022-12-03T15:31:25.566Z,14.50
2022-12-03T15:33:52.541Z,14.50
2022-12-03T15:36:19.438Z,14.50
2022-12-03T15:38:46.281Z,14.50
2022-12-03T15:41:24.832Z,14.50
2022-12-03T15:43:55.384Z,14.50
2022-12-03T15:46:22.307Z,14.50
2022-12-03T15:48:49.534Z,14.50
2022-12-03T15:51:16.454Z,14.50
2022-12-03T15:53:43.480Z,14.50
2022-12-03T15:56:12.136Z,14.50
2022-12-03T15:58:39.940Z,14.50
2022-12-03T16:01:07.473Z,14.50
2022-12-03T16:03:34.558Z,14.40
2022-12-03T16:06:01.529Z,14.40
2022-12-03T16:08:28.402Z,14.50
2022-12-03T16:10:55.203Z,14.40
2022-12-03T16:13:22.063Z,14.50
2022-12-03T16:15:49.007Z,14.50
2022-12-03T16:18:15.873Z,14.50
2022-12-03T16:20:42.753Z,14.50
2022-12-03T16:23:09.714Z,14.50
2022-12-03T16:25:36.567Z,14.50
2022-12-03T16:28:03.441Z,14.50
2022-12-03T16:30:30.297Z,14.50
2022-12-03T16:32:57.231Z,14.50
2022-12-03T16:35:24.086Z,14.50
2022-12-03T16:37:50.879Z,14.50
2022-12-03T16:40:18.001Z,14.40
2022-12-03T16:42:44.892Z,14.40
2022-12-03T16:45:31.833Z,14.40
2022-12-03T16:47:58.933Z,14.40
2022-12-03T16:50:29.992Z,14.40
2022-12-03T16:52:57.559Z,14.40
2022-12-03T16:55:24.697Z,14.40
2022-12-03T16:57:51.574Z,14.40
2022-12-03T17:00:18.737Z,14.40
2022-12-03T17:02:45.584Z,14.50
2022-12-03T17:05:12.521Z,14.50
2022-12-03T17:07:39.494Z,14.50
2022-12-03T17:10:06.948Z,14.50
2022-12-03T17:13:07.077Z,14.50
2022-12-03T17:15:20.532Z,14.50
2022-12-03T17:17:47.319Z,14.40
2022-12-03T17:20:14.819Z,14.40
2022-12-03T17:22:42.055Z,14.40
2022-12-03T17:25:10.072Z,14.40
2022-12-03T17:27:42.053Z,14.40
2022-12-03T17:30:12.100Z,14.40
2022-12-03T17:32:39.009Z,14.40
2022-12-03T17:35:06.319Z,14.40
2022-12-03T17:37:33.313Z,14.40
2022-12-03T17:40:00.397Z,14.40
2022-12-03T17:42:27.274Z,14.40
2022-12-03T17:44:54.129Z,14.40
2022-12-03T17:47:21.012Z,14.40
2022-12-03T17:49:47.807Z,14.40
2022-12-03T17:52:14.735Z,14.40
2022-12-03T17:55:08.384Z,14.40
2022-12-03T17:57:28.448Z,14.40
2022-12-03T17:59:55.646Z,14.40
2022-12-03T18:02:22.868Z,14.40
2022-12-03T18:04:49.713Z,14.40
2022-12-03T18:07:16.511Z,14.40
2022-12-03T18:09:43.320Z,14.40
2022-12-03T18:12:10.121Z,14.30
2022-12-03T18:14:36.950Z,14.30
2022-12-03T18:17:03.796Z,14.30
2022-12-03T18:19:30.612Z,14.30
2022-12-03T18:21:57.468Z,14.30
2022-12-03T18:24:25.092Z,14.30
2022-12-03T18:26:51.902Z,14.30
2022-12-03T18:29:18.759Z,14.20
2022-12-03T18:31:45.785Z,14.20
2022-12-03T18:34:12.667Z,14.20
2022-12-03T18:36:39.627Z,14.30
2022-12-03T18:39:12.324Z,14.20
2022-12-03T18:41:39.267Z,14.30
2022-12-03T18:44:09.785Z,14.30
2022-12-03T18:46:52.916Z,14.30
2022-12-03T18:49:20.836Z,14.30
2022-12-03T18:51:48.517Z,14.30
2022-12-03T18:54:15.865Z,14.30
2022-12-03T18:56:42.870Z,14.30
2022-12-03T18:59:09.752Z,14.30
2022-12-03T19:01:36.739Z,14.30
2022-12-03T19:04:03.831Z,14.30
2022-12-03T19:06:30.737Z,14.30
2022-12-03T19:08:58.081Z,14.30
2022-12-03T19:11:25.217Z,14.30
2022-12-03T19:13:52.269Z,14.30
2022-12-03T19:16:19.316Z,14.30
2022-12-03T19:18:46.294Z,14.30
2022-12-03T19:21:15.691Z,14.30
2022-12-03T19:24:04.322Z,14.20
2022-12-03T19:26:30.695Z,14.30
2022-12-03T19:28:57.781Z,14.30
2022-12-03T19:31:24.680Z,14.30
2022-12-03T19:33:52.043Z,14.30
2022-12-03T19:36:30.085Z,14.30
2022-12-03T19:38:58.856Z,14.30
2022-12-03T19:41:28.010Z,14.30
2022-12-03T19:43:56.200Z,14.30
2022-12-03T19:46:24.524Z,14.30
2022-12-03T19:48:51.842Z,14.30
2022-12-03T19:51:35.423Z,14.30
2022-12-03T19:54:07.718Z,14.30
2022-12-03T19:56:34.957Z,14.30
2022-12-03T19:59:02.290Z,14.30
2022-12-03T20:01:32.291Z,14.20
2022-12-03T20:04:00.537Z,14.20
2022-12-03T20:06:30.108Z,14.30
2022-12-03T20:08:58.917Z,14.30
2022-12-03T20:11:28.797Z,14.30
2022-12-03T20:13:57.866Z,14.30
2022-12-03T20:16:25.617Z,14.20
2022-12-03T20:18:57.228Z,14.20
2022-12-03T20:21:24.002Z,14.20
2022-12-03T20:23:50.861Z,14.20
2022-12-03T20:26:19.805Z,14.20
2022-12-03T20:28:48.225Z,14.20
2022-12-03T20:31:18.338Z,14.20
2022-12-03T20:33:51.301Z,14.20
2022-12-03T20:36:20.730Z,14.20
2022-12-03T20:38:47.635Z,14.20
2022-12-03T20:41:21.450Z,14.20
2022-12-03T20:43:48.926Z,14.20
2022-12-03T20:46:19.265Z,14.20
2022-12-03T20:48:46.546Z,14.20
2022-12-03T20:51:15.950Z,14.20
2022-12-03T20:53:44.368Z,14.20
2022-12-03T20:56:15.917Z,14.30
2022-12-03T20:58:42.705Z,14.30
2022-12-03T21:01:18.140Z,14.30
2022-12-03T21:03:46.011Z,14.30
2022-12-03T21:06:13.672Z,14.30
2022-12-03T21:08:43.073Z,14.30
2022-12-03T21:11:16.889Z,14.30
2022-12-03T21:13:44.308Z,14.30
2022-12-03T21:16:18.484Z,14.30
2022-12-03T21:18:45.748Z,14.30
2022-12-03T21:21:15.171Z,14.30
2022-12-03T21:23:42.788Z,14.30
2022-12-03T21:26:12.205Z,14.30
2022-12-03T21:28:40.852Z,14.20
2022-12-03T21:31:10.727Z,14.20
2022-12-03T21:33:38.053Z,14.20
2022-12-03T21:36:05.969Z,14.20
2022-12-03T21:38:34.011Z,14.20
2022-12-03T21:41:01.964Z,14.20
2022-12-03T21:43:29.437Z,14.20
2022-12-03T21:45:56.610Z,14.20
2022-12-03T21:48:23.576Z,14.20
2022-12-03T21:51:08.097Z,14.20
2022-12-03T21:53:41.915Z,14.20
2022-12-03T21:56:13.417Z,14.20
2022-12-03T21:58:40.641Z,14.30
2022-12-03T22:01:18.994Z,14.20
2022-12-03T22:03:45.944Z,14.20
2022-12-03T22:06:12.961Z,14.30
2022-12-03T22:08:40.560Z,14.30
2022-12-03T22:11:20.280Z,14.30
2022-12-03T22:13:47.433Z,14.30
2022-12-03T22:16:17.101Z,14.30
2022-12-03T22:18:44.356Z,14.30
2022-12-03T22:21:16.329Z,14.40
2022-12-03T22:23:43.771Z,14.40
2022-12-03T22:26:16.357Z,14.40
2022-12-03T22:28:45.186Z,14.30
2022-12-03T22:31:13.119Z,14.40
2022-12-03T22:33:40.753Z,14.40
2022-12-03T22:36:14.854Z,14.40
2022-12-03T22:38:46.627Z,14.40
2022-12-03T22:41:14.452Z,14.40
2022-12-03T22:43:41.369Z,14.40
2022-12-03T22:46:12.926Z,14.40
2022-12-03T22:48:41.251Z,14.40
2022-12-03T22:51:15.462Z,14.40
2022-12-03T22:53:42.301Z,14.40
2022-12-03T22:56:09.373Z,14.40
2022-12-03T22:58:38.781Z,14.50
2022-12-03T23:01:06.430Z,14.40
2022-12-03T23:03:33.438Z,14.40
2022-12-03T23:06:00.298Z,14.50
2022-12-03T23:08:27.208Z,14.50
2022-12-03T23:10:54.014Z,14.50
2022-12-03T23:13:21.226Z,14.50
2022-12-03T23:15:51.056Z,14.50
2022-12-03T23:18:18.933Z,14.40
2022-12-03T23:20:48.717Z,14.40
2022-12-03T23:23:16.807Z,14.40
2022-12-03T23:25:44.136Z,14.50
2022-12-03T23:28:12.536Z,14.50
2022-12-03T23:30:40.201Z,14.50
2022-12-03T23:33:07.205Z,14.50
2022-12-03T23:35:34.376Z,14.50
2022-12-03T23:38:01.279Z,14.50
2022-12-03T23:40:28.189Z,14.50
2022-12-03T23:42:55.169Z,14.50
2022-12-03T23:45:22.277Z,14.50
2022-12-03T23:47:52.349Z,14.60
2022-12-03T23:50:21.992Z,14.60
2022-12-03T23:52:48.801Z,14.60
2022-12-03T23:55:15.598Z,14.60
2022-12-03T23:57:42.430Z,14.60
